sensor_id;sensor_type;location;lat;lon;timestamp;P1;durP1;ratioP1;P2;durP2;ratioP2
21206;SDS011;10761;48.532;8.026;2023-12-04T00:01:47;6.13;;;4.50;;
21206;SDS011;10761;48.532;8.026;2023-12-04T00:04:13;7.57;;;4.65;;
21206;SDS011;10761;48.532;8.026;2023-12-04T00:06:38;6.60;;;4.40;;
21206;SDS011;10761;48.532;8.026;2023-12-04T00:09:06;6.32;;;4.63;;
21206;SDS011;10761;48.532;8.026;2023-12-04T00:11:31;10.38;;;5.55;;
21206;SDS011;10761;48.532;8.026;2023-12-04T00:13:57;7.35;;;4.88;;
21206;SDS011;10761;48.532;8.026;2023-12-04T00:16:23;9.07;;;5.05;;
21206;SDS011;10761;48.532;8.026;2023-12-04T00:18:49;8.13;;;4.80;;
21206;SDS011;10761;48.532;8.026;2023-12-04T00:21:14;7.20;;;5.18;;
21206;SDS011;10761;48.532;8.026;2023-12-04T00:23:40;8.13;;;5.00;;
21206;SDS011;10761;48.532;8.026;2023-12-04T00:26:06;7.60;;;4.78;;
21206;SDS011;10761;48.532;8.026;2023-12-04T00:28:31;7.35;;;4.95;;
21206;SDS011;10761;48.532;8.026;2023-12-04T00:30:57;6.88;;;4.60;;
21206;SDS011;10761;48.532;8.026;2023-12-04T00:33:23;7.97;;;5.10;;
21206;SDS011;10761;48.532;8.026;2023-12-04T00:35:48;6.43;;;4.63;;
21206;SDS011;10761;48.532;8.026;2023-12-04T00:38:14;7.20;;;4.72;;
21206;SDS011;10761;48.532;8.026;2023-12-04T00:40:39;6.65;;;4.70;;
21206;SDS011;10761;48.532;8.026;2023-12-04T00:43:05;4.93;;;4.07;;
21206;SDS011;10761;48.532;8.026;2023-12-04T00:47:36;5.88;;;3.80;;
21206;SDS011;10761;48.532;8.026;2023-12-04T00:50:02;7.32;;;3.95;;
21206;SDS011;10761;48.532;8.026;2023-12-04T00:52:28;4.65;;;3.67;;
21206;SDS011;10761;48.532;8.026;2023-12-04T00:54:53;5.43;;;3.75;;
21206;SDS011;10761;48.532;8.026;2023-12-04T00:57:25;9.20;;;3.55;;
21206;SDS011;10761;48.532;8.026;2023-12-04T00:59:51;5.57;;;3.97;;
21206;SDS011;10761;48.532;8.026;2023-12-04T01:02:17;5.00;;;3.65;;
21206;SDS011;10761;48.532;8.026;2023-12-04T01:04:42;6.40;;;4.28;;
21206;SDS011;10761;48.532;8.026;2023-12-04T01:07:08;11.23;;;5.40;;
21206;SDS011;10761;48.532;8.026;2023-12-04T01:09:37;7.85;;;5.03;;
21206;SDS011;10761;48.532;8.026;2023-12-04T01:12:03;7.40;;;5.00;;
21206;SDS011;10761;48.532;8.026;2023-12-04T01:14:29;6.55;;;4.70;;
21206;SDS011;10761;48.532;8.026;2023-12-04T01:16:55;5.80;;;4.25;;
21206;SDS011;10761;48.532;8.026;2023-12-04T01:19:20;6.65;;;4.00;;
21206;SDS011;10761;48.532;8.026;2023-12-04T01:21:46;5.50;;;4.07;;
21206;SDS011;10761;48.532;8.026;2023-12-04T01:24:11;5.22;;;3.67;;
21206;SDS011;10761;48.532;8.026;2023-12-04T01:26:39;5.55;;;4.10;;
21206;SDS011;10761;48.532;8.026;2023-12-04T01:29:05;8.15;;;4.15;;
21206;SDS011;10761;48.532;8.026;2023-12-04T01:31:30;5.45;;;3.10;;
21206;SDS011;10761;48.532;8.026;2023-12-04T01:33:56;4.75;;;3.47;;
21206;SDS011;10761;48.532;8.026;2023-12-04T01:36:21;4.38;;;3.38;;
21206;SDS011;10761;48.532;8.026;2023-12-04T01:38:47;7.78;;;3.80;;
21206;SDS011;10761;48.532;8.026;2023-12-04T01:41:12;5.70;;;3.90;;
21206;SDS011;10761;48.532;8.026;2023-12-04T01:43:38;7.10;;;3.95;;
21206;SDS011;10761;48.532;8.026;2023-12-04T01:46:04;5.72;;;4.03;;
21206;SDS011;10761;48.532;8.026;2023-12-04T01:48:31;7.88;;;4.55;;
21206;SDS011;10761;48.532;8.026;2023-12-04T01:50:57;6.13;;;4.13;;
21206;SDS011;10761;48.532;8.026;2023-12-04T01:53:25;5.47;;;3.83;;
21206;SDS011;10761;48.532;8.026;2023-12-04T01:55:51;5.82;;;3.97;;
21206;SDS011;10761;48.532;8.026;2023-12-04T01:58:16;8.23;;;4.35;;
21206;SDS011;10761;48.532;8.026;2023-12-04T02:00:42;8.27;;;4.40;;
21206;SDS011;10761;48.532;8.026;2023-12-04T02:03:08;6.22;;;4.20;;
21206;SDS011;10761;48.532;8.026;2023-12-04T02:05:35;6.88;;;4.68;;
21206;SDS011;10761;48.532;8.026;2023-12-04T02:08:01;7.10;;;5.28;;
21206;SDS011;10761;48.532;8.026;2023-12-04T02:10:28;9.18;;;5.30;;
21206;SDS011;10761;48.532;8.026;2023-12-04T02:12:54;7.95;;;4.85;;
21206;SDS011;10761;48.532;8.026;2023-12-04T02:15:20;5.97;;;4.40;;
21206;SDS011;10761;48.532;8.026;2023-12-04T02:17:45;7.05;;;4.55;;
21206;SDS011;10761;48.532;8.026;2023-12-04T02:20:15;7.78;;;4.43;;
21206;SDS011;10761;48.532;8.026;2023-12-04T02:22:42;9.65;;;5.32;;
21206;SDS011;10761;48.532;8.026;2023-12-04T02:25:07;7.82;;;5.60;;
21206;SDS011;10761;48.532;8.026;2023-12-04T02:27:39;7.75;;;5.30;;
21206;SDS011;10761;48.532;8.026;2023-12-04T02:30:11;8.82;;;5.05;;
21206;SDS011;10761;48.532;8.026;2023-12-04T02:32:39;7.38;;;5.40;;
21206;SDS011;10761;48.532;8.026;2023-12-04T02:35:09;7.78;;;5.50;;
21206;SDS011;10761;48.532;8.026;2023-12-04T02:37:36;8.70;;;5.63;;
21206;SDS011;10761;48.532;8.026;2023-12-04T02:40:03;9.25;;;6.43;;
21206;SDS011;10761;48.532;8.026;2023-12-04T02:42:29;8.38;;;5.72;;
21206;SDS011;10761;48.532;8.026;2023-12-04T02:44:55;8.95;;;6.15;;
21206;SDS011;10761;48.532;8.026;2023-12-04T02:47:20;8.82;;;6.28;;
21206;SDS011;10761;48.532;8.026;2023-12-04T02:49:46;10.50;;;6.93;;
21206;SDS011;10761;48.532;8.026;2023-12-04T02:52:11;11.82;;;7.57;;
21206;SDS011;10761;48.532;8.026;2023-12-04T02:54:37;13.00;;;8.27;;
21206;SDS011;10761;48.532;8.026;2023-12-04T02:57:03;12.57;;;8.27;;
21206;SDS011;10761;48.532;8.026;2023-12-04T02:59:28;11.65;;;8.15;;
21206;SDS011;10761;48.532;8.026;2023-12-04T03:01:54;13.05;;;8.50;;
21206;SDS011;10761;48.532;8.026;2023-12-04T03:04:20;12.38;;;8.27;;
21206;SDS011;10761;48.532;8.026;2023-12-04T03:06:45;13.98;;;8.80;;
21206;SDS011;10761;48.532;8.026;2023-12-04T03:09:11;11.88;;;8.38;;
21206;SDS011;10761;48.532;8.026;2023-12-04T03:11:40;13.38;;;8.55;;
21206;SDS011;10761;48.532;8.026;2023-12-04T03:14:06;13.80;;;9.00;;
21206;SDS011;10761;48.532;8.026;2023-12-04T03:16:32;14.23;;;9.65;;
21206;SDS011;10761;48.532;8.026;2023-12-04T03:18:58;13.07;;;8.73;;
21206;SDS011;10761;48.532;8.026;2023-12-04T03:21:23;13.30;;;8.82;;
21206;SDS011;10761;48.532;8.026;2023-12-04T03:23:49;13.65;;;9.23;;
21206;SDS011;10761;48.532;8.026;2023-12-04T03:26:15;14.65;;;9.02;;
21206;SDS011;10761;48.532;8.026;2023-12-04T03:28:40;14.45;;;9.23;;
21206;SDS011;10761;48.532;8.026;2023-12-04T03:31:06;15.55;;;9.40;;
21206;SDS011;10761;48.532;8.026;2023-12-04T03:33:32;13.27;;;8.60;;
21206;SDS011;10761;48.532;8.026;2023-12-04T03:36:00;13.07;;;8.80;;
21206;SDS011;10761;48.532;8.026;2023-12-04T03:38:26;14.45;;;9.18;;
21206;SDS011;10761;48.532;8.026;2023-12-04T03:40:52;13.20;;;9.32;;
21206;SDS011;10761;48.532;8.026;2023-12-04T03:43:17;14.20;;;9.52;;
21206;SDS011;10761;48.532;8.026;2023-12-04T03:45:43;14.85;;;10.30;;
21206;SDS011;10761;48.532;8.026;2023-12-04T03:48:08;13.57;;;9.50;;
21206;SDS011;10761;48.532;8.026;2023-12-04T03:50:34;12.93;;;8.45;;
21206;SDS011;10761;48.532;8.026;2023-12-04T03:53:00;18.30;;;9.55;;
21206;SDS011;10761;48.532;8.026;2023-12-04T03:55:25;14.73;;;9.63;;
21206;SDS011;10761;48.532;8.026;2023-12-04T03:57:52;15.05;;;10.18;;
21206;SDS011;10761;48.532;8.026;2023-12-04T04:00:18;15.63;;;9.68;;
21206;SDS011;10761;48.532;8.026;2023-12-04T04:02:43;14.20;;;9.23;;
21206;SDS011;10761;48.532;8.026;2023-12-04T04:05:09;16.80;;;10.15;;
21206;SDS011;10761;48.532;8.026;2023-12-04T04:07:35;15.18;;;10.07;;
21206;SDS011;10761;48.532;8.026;2023-12-04T04:10:01;14.20;;;9.40;;
21206;SDS011;10761;48.532;8.026;2023-12-04T04:12:29;14.60;;;8.98;;
21206;SDS011;10761;48.532;8.026;2023-12-04T04:14:55;13.25;;;9.38;;
21206;SDS011;10761;48.532;8.026;2023-12-04T04:17:20;16.50;;;9.57;;
21206;SDS011;10761;48.532;8.026;2023-12-04T04:19:46;13.60;;;8.93;;
21206;SDS011;10761;48.532;8.026;2023-12-04T04:22:12;12.70;;;8.23;;
21206;SDS011;10761;48.532;8.026;2023-12-04T04:24:38;14.10;;;7.90;;
21206;SDS011;10761;48.532;8.026;2023-12-04T04:27:03;13.93;;;9.20;;
21206;SDS011;10761;48.532;8.026;2023-12-04T04:29:29;14.93;;;9.90;;
21206;SDS011;10761;48.532;8.026;2023-12-04T04:31:55;14.35;;;9.40;;
21206;SDS011;10761;48.532;8.026;2023-12-04T04:34:21;13.43;;;9.10;;
21206;SDS011;10761;48.532;8.026;2023-12-04T04:36:46;15.90;;;9.15;;
21206;SDS011;10761;48.532;8.026;2023-12-04T04:39:13;13.63;;;9.30;;
21206;SDS011;10761;48.532;8.026;2023-12-04T04:41:39;14.02;;;9.38;;
21206;SDS011;10761;48.532;8.026;2023-12-04T04:44:05;17.35;;;11.10;;
21206;SDS011;10761;48.532;8.026;2023-12-04T04:46:31;14.65;;;9.35;;
21206;SDS011;10761;48.532;8.026;2023-12-04T04:48:57;13.55;;;8.70;;
21206;SDS011;10761;48.532;8.026;2023-12-04T04:51:22;13.13;;;8.93;;
21206;SDS011;10761;48.532;8.026;2023-12-04T04:53:48;14.27;;;9.20;;
21206;SDS011;10761;48.532;8.026;2023-12-04T04:56:14;14.73;;;8.35;;
21206;SDS011;10761;48.532;8.026;2023-12-04T04:58:40;15.05;;;9.43;;
21206;SDS011;10761;48.532;8.026;2023-12-04T05:01:06;20.20;;;11.85;;
21206;SDS011;10761;48.532;8.026;2023-12-04T05:03:33;10.25;;;7.03;;
21206;SDS011;10761;48.532;8.026;2023-12-04T05:05:58;10.75;;;7.13;;
21206;SDS011;10761;48.532;8.026;2023-12-04T05:08:24;10.98;;;7.30;;
21206;SDS011;10761;48.532;8.026;2023-12-04T05:10:49;10.10;;;6.97;;
21206;SDS011;10761;48.532;8.026;2023-12-04T05:13:15;10.50;;;7.05;;
21206;SDS011;10761;48.532;8.026;2023-12-04T05:15:40;14.10;;;9.10;;
21206;SDS011;10761;48.532;8.026;2023-12-04T05:18:06;12.38;;;8.00;;
21206;SDS011;10761;48.532;8.026;2023-12-04T05:20:32;14.55;;;8.75;;
21206;SDS011;10761;48.532;8.026;2023-12-04T05:22:57;15.65;;;8.77;;
21206;SDS011;10761;48.532;8.026;2023-12-04T05:25:23;12.43;;;8.38;;
21206;SDS011;10761;48.532;8.026;2023-12-04T05:27:48;12.82;;;8.32;;
21206;SDS011;10761;48.532;8.026;2023-12-04T05:30:14;12.27;;;8.07;;
21206;SDS011;10761;48.532;8.026;2023-12-04T05:32:39;13.32;;;8.77;;
21206;SDS011;10761;48.532;8.026;2023-12-04T05:35:05;14.50;;;8.88;;
21206;SDS011;10761;48.532;8.026;2023-12-04T05:37:31;14.20;;;9.20;;
21206;SDS011;10761;48.532;8.026;2023-12-04T05:39:57;13.73;;;10.30;;
21206;SDS011;10761;48.532;8.026;2023-12-04T05:42:22;14.95;;;9.02;;
21206;SDS011;10761;48.532;8.026;2023-12-04T05:44:48;13.27;;;8.93;;
21206;SDS011;10761;48.532;8.026;2023-12-04T05:47:14;13.07;;;7.88;;
21206;SDS011;10761;48.532;8.026;2023-12-04T05:49:40;12.77;;;8.35;;
21206;SDS011;10761;48.532;8.026;2023-12-04T05:52:06;9.80;;;6.72;;
21206;SDS011;10761;48.532;8.026;2023-12-04T05:54:32;10.65;;;6.70;;
21206;SDS011;10761;48.532;8.026;2023-12-04T05:56:57;9.65;;;7.03;;
21206;SDS011;10761;48.532;8.026;2023-12-04T05:59:24;10.75;;;7.35;;
21206;SDS011;10761;48.532;8.026;2023-12-04T06:01:50;13.68;;;7.30;;
21206;SDS011;10761;48.532;8.026;2023-12-04T06:04:16;11.27;;;8.00;;
21206;SDS011;10761;48.532;8.026;2023-12-04T06:06:41;11.93;;;8.30;;
21206;SDS011;10761;48.532;8.026;2023-12-04T06:09:07;12.75;;;8.60;;
21206;SDS011;10761;48.532;8.026;2023-12-04T06:11:33;13.27;;;9.10;;
21206;SDS011;10761;48.532;8.026;2023-12-04T06:13:59;11.85;;;8.00;;
21206;SDS011;10761;48.532;8.026;2023-12-04T06:16:24;12.52;;;8.25;;
21206;SDS011;10761;48.532;8.026;2023-12-04T06:18:50;13.02;;;8.45;;
21206;SDS011;10761;48.532;8.026;2023-12-04T06:21:15;11.57;;;7.07;;
21206;SDS011;10761;48.532;8.026;2023-12-04T06:23:41;9.98;;;6.90;;
21206;SDS011;10761;48.532;8.026;2023-12-04T06:26:07;11.30;;;7.82;;
21206;SDS011;10761;48.532;8.026;2023-12-04T06:28:33;12.20;;;7.68;;
21206;SDS011;10761;48.532;8.026;2023-12-04T06:30:59;12.85;;;8.27;;
21206;SDS011;10761;48.532;8.026;2023-12-04T06:33:25;12.38;;;8.65;;
21206;SDS011;10761;48.532;8.026;2023-12-04T06:35:51;13.63;;;8.38;;
21206;SDS011;10761;48.532;8.026;2023-12-04T06:38:17;20.92;;;13.40;;
21206;SDS011;10761;48.532;8.026;2023-12-04T06:40:47;17.83;;;11.93;;
21206;SDS011;10761;48.532;8.026;2023-12-04T06:43:13;19.65;;;12.80;;
21206;SDS011;10761;48.532;8.026;2023-12-04T06:45:41;18.70;;;11.85;;
21206;SDS011;10761;48.532;8.026;2023-12-04T06:48:07;20.17;;;11.52;;
21206;SDS011;10761;48.532;8.026;2023-12-04T06:50:33;14.10;;;9.38;;
21206;SDS011;10761;48.532;8.026;2023-12-04T06:52:59;13.40;;;9.90;;
21206;SDS011;10761;48.532;8.026;2023-12-04T06:55:25;15.20;;;10.50;;
21206;SDS011;10761;48.532;8.026;2023-12-04T06:57:50;12.25;;;8.85;;
21206;SDS011;10761;48.532;8.026;2023-12-04T07:00:16;14.63;;;9.18;;
21206;SDS011;10761;48.532;8.026;2023-12-04T07:02:41;12.82;;;8.50;;
21206;SDS011;10761;48.532;8.026;2023-12-04T07:05:07;14.43;;;9.88;;
21206;SDS011;10761;48.532;8.026;2023-12-04T07:07:33;17.70;;;11.20;;
21206;SDS011;10761;48.532;8.026;2023-12-04T07:09:59;19.25;;;11.48;;
21206;SDS011;10761;48.532;8.026;2023-12-04T07:12:24;17.10;;;10.90;;
21206;SDS011;10761;48.532;8.026;2023-12-04T07:14:50;14.45;;;8.75;;
21206;SDS011;10761;48.532;8.026;2023-12-04T07:17:16;14.25;;;8.90;;
21206;SDS011;10761;48.532;8.026;2023-12-04T07:19:41;17.08;;;9.05;;
21206;SDS011;10761;48.532;8.026;2023-12-04T07:22:07;16.05;;;9.55;;
21206;SDS011;10761;48.532;8.026;2023-12-04T07:24:33;14.70;;;9.45;;
21206;SDS011;10761;48.532;8.026;2023-12-04T07:26:58;14.07;;;9.38;;
21206;SDS011;10761;48.532;8.026;2023-12-04T07:29:24;16.52;;;9.85;;
21206;SDS011;10761;48.532;8.026;2023-12-04T07:31:50;13.63;;;8.95;;
21206;SDS011;10761;48.532;8.026;2023-12-04T07:34:16;14.93;;;9.65;;
21206;SDS011;10761;48.532;8.026;2023-12-04T07:36:41;16.65;;;9.80;;
21206;SDS011;10761;48.532;8.026;2023-12-04T07:39:09;13.88;;;9.93;;
21206;SDS011;10761;48.532;8.026;2023-12-04T07:41:35;15.00;;;8.98;;
21206;SDS011;10761;48.532;8.026;2023-12-04T07:44:01;13.02;;;9.20;;
21206;SDS011;10761;48.532;8.026;2023-12-04T07:46:28;12.15;;;8.10;;
21206;SDS011;10761;48.532;8.026;2023-12-04T07:48:54;10.63;;;7.53;;
21206;SDS011;10761;48.532;8.026;2023-12-04T07:51:19;11.90;;;7.60;;
21206;SDS011;10761;48.532;8.026;2023-12-04T07:53:45;10.85;;;7.55;;
21206;SDS011;10761;48.532;8.026;2023-12-04T07:56:12;13.07;;;8.02;;
21206;SDS011;10761;48.532;8.026;2023-12-04T07:58:38;11.20;;;7.70;;
21206;SDS011;10761;48.532;8.026;2023-12-04T08:01:03;10.95;;;7.43;;
21206;SDS011;10761;48.532;8.026;2023-12-04T08:03:29;12.27;;;7.65;;
21206;SDS011;10761;48.532;8.026;2023-12-04T08:05:55;9.60;;;6.40;;
21206;SDS011;10761;48.532;8.026;2023-12-04T08:08:21;10.98;;;7.22;;
21206;SDS011;10761;48.532;8.026;2023-12-04T08:10:47;8.98;;;6.65;;
21206;SDS011;10761;48.532;8.026;2023-12-04T08:13:12;11.70;;;7.40;;
21206;SDS011;10761;48.532;8.026;2023-12-04T08:15:38;11.00;;;7.25;;
21206;SDS011;10761;48.532;8.026;2023-12-04T08:18:04;11.15;;;7.85;;
21206;SDS011;10761;48.532;8.026;2023-12-04T08:20:30;11.48;;;7.35;;
21206;SDS011;10761;48.532;8.026;2023-12-04T08:22:55;10.63;;;7.28;;
21206;SDS011;10761;48.532;8.026;2023-12-04T08:25:21;11.45;;;7.40;;
21206;SDS011;10761;48.532;8.026;2023-12-04T08:27:46;13.75;;;9.02;;
21206;SDS011;10761;48.532;8.026;2023-12-04T08:30:14;20.83;;;11.05;;
21206;SDS011;10761;48.532;8.026;2023-12-04T08:32:40;14.60;;;9.38;;
21206;SDS011;10761;48.532;8.026;2023-12-04T08:35:05;13.25;;;8.68;;
21206;SDS011;10761;48.532;8.026;2023-12-04T08:37:31;12.18;;;8.05;;
21206;SDS011;10761;48.532;8.026;2023-12-04T08:39:57;13.00;;;8.73;;
21206;SDS011;10761;48.532;8.026;2023-12-04T08:42:23;11.70;;;8.35;;
21206;SDS011;10761;48.532;8.026;2023-12-04T08:44:48;15.02;;;8.32;;
21206;SDS011;10761;48.532;8.026;2023-12-04T08:47:14;13.77;;;8.40;;
21206;SDS011;10761;48.532;8.026;2023-12-04T08:49:40;11.52;;;8.05;;
21206;SDS011;10761;48.532;8.026;2023-12-04T08:52:09;12.45;;;8.10;;
21206;SDS011;10761;48.532;8.026;2023-12-04T08:54:38;12.43;;;8.43;;
21206;SDS011;10761;48.532;8.026;2023-12-04T08:57:05;11.98;;;8.20;;
21206;SDS011;10761;48.532;8.026;2023-12-04T08:59:31;13.63;;;8.77;;
21206;SDS011;10761;48.532;8.026;2023-12-04T09:01:56;12.88;;;8.00;;
21206;SDS011;10761;48.532;8.026;2023-12-04T09:04:22;13.10;;;9.02;;
21206;SDS011;10761;48.532;8.026;2023-12-04T09:06:47;14.10;;;9.30;;
21206;SDS011;10761;48.532;8.026;2023-12-04T09:09:13;11.85;;;8.43;;
21206;SDS011;10761;48.532;8.026;2023-12-04T09:11:43;14.05;;;8.63;;
21206;SDS011;10761;48.532;8.026;2023-12-04T09:14:09;12.13;;;8.35;;
21206;SDS011;10761;48.532;8.026;2023-12-04T09:16:35;13.38;;;8.73;;
21206;SDS011;10761;48.532;8.026;2023-12-04T09:19:00;13.50;;;8.82;;
21206;SDS011;10761;48.532;8.026;2023-12-04T09:21:26;18.92;;;11.80;;
21206;SDS011;10761;48.532;8.026;2023-12-04T09:23:52;16.02;;;10.80;;
21206;SDS011;10761;48.532;8.026;2023-12-04T09:26:17;14.43;;;8.90;;
21206;SDS011;10761;48.532;8.026;2023-12-04T09:28:43;10.70;;;8.07;;
21206;SDS011;10761;48.532;8.026;2023-12-04T09:31:09;10.20;;;6.65;;
21206;SDS011;10761;48.532;8.026;2023-12-04T09:33:34;10.65;;;7.50;;
21206;SDS011;10761;48.532;8.026;2023-12-04T09:36:01;11.88;;;7.88;;
21206;SDS011;10761;48.532;8.026;2023-12-04T09:38:27;11.57;;;8.05;;
21206;SDS011;10761;48.532;8.026;2023-12-04T09:40:53;10.90;;;7.60;;
21206;SDS011;10761;48.532;8.026;2023-12-04T09:43:23;10.45;;;7.50;;
21206;SDS011;10761;48.532;8.026;2023-12-04T09:45:49;12.07;;;8.13;;
21206;SDS011;10761;48.532;8.026;2023-12-04T09:48:15;10.15;;;6.70;;
21206;SDS011;10761;48.532;8.026;2023-12-04T09:50:41;9.95;;;5.90;;
21206;SDS011;10761;48.532;8.026;2023-12-04T09:53:08;9.90;;;6.60;;
21206;SDS011;10761;48.532;8.026;2023-12-04T09:55:35;10.18;;;7.45;;
21206;SDS011;10761;48.532;8.026;2023-12-04T09:58:01;14.70;;;7.93;;
21206;SDS011;10761;48.532;8.026;2023-12-04T10:00:27;13.27;;;8.30;;
21206;SDS011;10761;48.532;8.026;2023-12-04T10:02:53;10.30;;;7.45;;
21206;SDS011;10761;48.532;8.026;2023-12-04T10:05:20;12.13;;;8.05;;
21206;SDS011;10761;48.532;8.026;2023-12-04T10:07:46;13.05;;;8.82;;
21206;SDS011;10761;48.532;8.026;2023-12-04T10:10:11;13.57;;;9.20;;
21206;SDS011;10761;48.532;8.026;2023-12-04T10:12:39;16.40;;;9.35;;
21206;SDS011;10761;48.532;8.026;2023-12-04T10:17:41;12.82;;;8.57;;
21206;SDS011;10761;48.532;8.026;2023-12-04T10:20:09;14.25;;;9.40;;
21206;SDS011;10761;48.532;8.026;2023-12-04T10:22:37;15.38;;;10.00;;
21206;SDS011;10761;48.532;8.026;2023-12-04T10:25:24;16.55;;;10.13;;
21206;SDS011;10761;48.532;8.026;2023-12-04T10:27:52;15.95;;;10.23;;
21206;SDS011;10761;48.532;8.026;2023-12-04T10:30:22;16.55;;;10.90;;
21206;SDS011;10761;48.532;8.026;2023-12-04T10:32:49;17.52;;;11.45;;
21206;SDS011;10761;48.532;8.026;2023-12-04T10:35:18;17.10;;;10.43;;
21206;SDS011;10761;48.532;8.026;2023-12-04T10:37:44;16.13;;;10.25;;
21206;SDS011;10761;48.532;8.026;2023-12-04T10:40:09;18.70;;;11.02;;
21206;SDS011;10761;48.532;8.026;2023-12-04T10:42:35;16.85;;;11.38;;
21206;SDS011;10761;48.532;8.026;2023-12-04T10:45:01;15.65;;;10.10;;
21206;SDS011;10761;48.532;8.026;2023-12-04T10:47:27;16.95;;;10.32;;
21206;SDS011;10761;48.532;8.026;2023-12-04T10:49:55;16.20;;;10.43;;
21206;SDS011;10761;48.532;8.026;2023-12-04T10:52:22;16.42;;;11.75;;
21206;SDS011;10761;48.532;8.026;2023-12-04T10:54:48;17.75;;;10.77;;
21206;SDS011;10761;48.532;8.026;2023-12-04T10:57:26;14.27;;;9.68;;
21206;SDS011;10761;48.532;8.026;2023-12-04T10:59:58;14.57;;;9.35;;
21206;SDS011;10761;48.532;8.026;2023-12-04T11:02:28;10.52;;;7.35;;
21206;SDS011;10761;48.532;8.026;2023-12-04T11:05:08;13.68;;;9.43;;
21206;SDS011;10761;48.532;8.026;2023-12-04T11:07:40;14.30;;;9.30;;
21206;SDS011;10761;48.532;8.026;2023-12-04T11:10:09;13.10;;;9.15;;
21206;SDS011;10761;48.532;8.026;2023-12-04T11:12:36;14.50;;;10.07;;
21206;SDS011;10761;48.532;8.026;2023-12-04T11:15:09;13.63;;;10.02;;
21206;SDS011;10761;48.532;8.026;2023-12-04T11:17:39;15.23;;;9.95;;
21206;SDS011;10761;48.532;8.026;2023-12-04T11:20:12;14.38;;;9.98;;
21206;SDS011;10761;48.532;8.026;2023-12-04T11:22:42;14.38;;;9.85;;
21206;SDS011;10761;48.532;8.026;2023-12-04T11:25:10;16.60;;;11.10;;
21206;SDS011;10761;48.532;8.026;2023-12-04T11:27:37;20.88;;;11.25;;
21206;SDS011;10761;48.532;8.026;2023-12-04T11:30:03;15.95;;;11.00;;
21206;SDS011;10761;48.532;8.026;2023-12-04T11:32:31;15.57;;;10.68;;
21206;SDS011;10761;48.532;8.026;2023-12-04T11:34:59;15.10;;;11.07;;
21206;SDS011;10761;48.532;8.026;2023-12-04T11:37:27;17.33;;;10.68;;
21206;SDS011;10761;48.532;8.026;2023-12-04T11:39:53;15.82;;;10.50;;
21206;SDS011;10761;48.532;8.026;2023-12-04T11:42:21;13.77;;;10.05;;
21206;SDS011;10761;48.532;8.026;2023-12-04T11:44:48;18.05;;;11.30;;
21206;SDS011;10761;48.532;8.026;2023-12-04T11:47:15;14.52;;;10.52;;
21206;SDS011;10761;48.532;8.026;2023-12-04T11:49:41;14.05;;;10.45;;
21206;SDS011;10761;48.532;8.026;2023-12-04T11:52:06;16.00;;;10.95;;
21206;SDS011;10761;48.532;8.026;2023-12-04T11:57:24;13.45;;;10.52;;
21206;SDS011;10761;48.532;8.026;2023-12-04T11:59:51;14.32;;;10.98;;
21206;SDS011;10761;48.532;8.026;2023-12-04T12:02:17;13.50;;;10.55;;
21206;SDS011;10761;48.532;8.026;2023-12-04T12:04:43;14.35;;;9.70;;
21206;SDS011;10761;48.532;8.026;2023-12-04T12:07:10;14.43;;;10.45;;
21206;SDS011;10761;48.532;8.026;2023-12-04T12:09:36;15.70;;;10.80;;
21206;SDS011;10761;48.532;8.026;2023-12-04T12:12:03;28.08;;;17.83;;
21206;SDS011;10761;48.532;8.026;2023-12-04T12:14:29;20.63;;;15.32;;
21206;SDS011;10761;48.532;8.026;2023-12-04T12:16:55;21.98;;;15.52;;
21206;SDS011;10761;48.532;8.026;2023-12-04T12:19:24;20.30;;;14.10;;
21206;SDS011;10761;48.532;8.026;2023-12-04T12:21:49;20.67;;;15.00;;
21206;SDS011;10761;48.532;8.026;2023-12-04T12:24:16;21.85;;;14.63;;
21206;SDS011;10761;48.532;8.026;2023-12-04T12:26:43;21.15;;;13.68;;
21206;SDS011;10761;48.532;8.026;2023-12-04T12:29:09;16.77;;;12.55;;
21206;SDS011;10761;48.532;8.026;2023-12-04T12:31:35;21.08;;;13.57;;
21206;SDS011;10761;48.532;8.026;2023-12-04T12:34:01;19.63;;;12.73;;
21206;SDS011;10761;48.532;8.026;2023-12-04T12:36:27;21.67;;;14.35;;
21206;SDS011;10761;48.532;8.026;2023-12-04T12:38:53;23.90;;;15.95;;
21206;SDS011;10761;48.532;8.026;2023-12-04T12:41:19;28.55;;;18.80;;
21206;SDS011;10761;48.532;8.026;2023-12-04T12:43:45;22.35;;;16.55;;
21206;SDS011;10761;48.532;8.026;2023-12-04T12:46:12;23.20;;;14.85;;
21206;SDS011;10761;48.532;8.026;2023-12-04T12:48:38;22.33;;;15.35;;
21206;SDS011;10761;48.532;8.026;2023-12-04T12:51:04;25.42;;;16.30;;
21206;SDS011;10761;48.532;8.026;2023-12-04T12:53:33;23.30;;;14.75;;
21206;SDS011;10761;48.532;8.026;2023-12-04T12:55:59;27.48;;;17.45;;
21206;SDS011;10761;48.532;8.026;2023-12-04T12:58:28;31.20;;;17.55;;
21206;SDS011;10761;48.532;8.026;2023-12-04T13:00:54;34.42;;;19.25;;
21206;SDS011;10761;48.532;8.026;2023-12-04T13:03:21;31.63;;;19.25;;
21206;SDS011;10761;48.532;8.026;2023-12-04T13:05:46;33.90;;;20.38;;
21206;SDS011;10761;48.532;8.026;2023-12-04T13:08:12;27.17;;;17.33;;
21206;SDS011;10761;48.532;8.026;2023-12-04T13:10:39;25.75;;;16.95;;
21206;SDS011;10761;48.532;8.026;2023-12-04T13:13:09;21.55;;;15.38;;
21206;SDS011;10761;48.532;8.026;2023-12-04T13:15:38;18.40;;;12.90;;
21206;SDS011;10761;48.532;8.026;2023-12-04T13:18:04;20.35;;;14.48;;
21206;SDS011;10761;48.532;8.026;2023-12-04T13:20:29;22.17;;;14.40;;
21206;SDS011;10761;48.532;8.026;2023-12-04T13:22:55;23.65;;;16.15;;
21206;SDS011;10761;48.532;8.026;2023-12-04T13:25:21;24.38;;;16.90;;
21206;SDS011;10761;48.532;8.026;2023-12-04T13:27:47;27.20;;;17.67;;
21206;SDS011;10761;48.532;8.026;2023-12-04T13:30:13;27.45;;;18.45;;
21206;SDS011;10761;48.532;8.026;2023-12-04T13:32:39;28.90;;;19.30;;
21206;SDS011;10761;48.532;8.026;2023-12-04T13:35:05;25.27;;;16.70;;
21206;SDS011;10761;48.532;8.026;2023-12-04T13:37:33;22.67;;;17.13;;
21206;SDS011;10761;48.532;8.026;2023-12-04T13:40:01;25.67;;;16.60;;
21206;SDS011;10761;48.532;8.026;2023-12-04T13:42:31;24.70;;;17.33;;
21206;SDS011;10761;48.532;8.026;2023-12-04T13:45:16;25.10;;;15.80;;
21206;SDS011;10761;48.532;8.026;2023-12-04T13:47:42;24.45;;;17.02;;
21206;SDS011;10761;48.532;8.026;2023-12-04T13:50:09;23.30;;;16.40;;
21206;SDS011;10761;48.532;8.026;2023-12-04T13:52:35;30.08;;;17.80;;
21206;SDS011;10761;48.532;8.026;2023-12-04T13:55:01;28.05;;;18.25;;
21206;SDS011;10761;48.532;8.026;2023-12-04T13:57:33;29.30;;;19.88;;
21206;SDS011;10761;48.532;8.026;2023-12-04T14:00:09;28.98;;;19.20;;
21206;SDS011;10761;48.532;8.026;2023-12-04T14:02:34;32.72;;;21.08;;
21206;SDS011;10761;48.532;8.026;2023-12-04T14:05:02;29.08;;;19.35;;
21206;SDS011;10761;48.532;8.026;2023-12-04T14:07:28;30.10;;;18.77;;
21206;SDS011;10761;48.532;8.026;2023-12-04T14:09:54;29.30;;;19.73;;
21206;SDS011;10761;48.532;8.026;2023-12-04T14:12:19;28.15;;;19.77;;
21206;SDS011;10761;48.532;8.026;2023-12-04T14:14:45;34.58;;;23.02;;
21206;SDS011;10761;48.532;8.026;2023-12-04T14:17:12;35.17;;;22.38;;
21206;SDS011;10761;48.532;8.026;2023-12-04T14:19:37;33.42;;;23.02;;
21206;SDS011;10761;48.532;8.026;2023-12-04T14:22:04;33.80;;;22.58;;
21206;SDS011;10761;48.532;8.026;2023-12-04T14:24:30;29.20;;;20.48;;
21206;SDS011;10761;48.532;8.026;2023-12-04T14:26:56;35.55;;;23.25;;
21206;SDS011;10761;48.532;8.026;2023-12-04T14:29:22;32.20;;;22.45;;
21206;SDS011;10761;48.532;8.026;2023-12-04T14:31:47;33.08;;;19.83;;
21206;SDS011;10761;48.532;8.026;2023-12-04T14:34:13;26.80;;;18.08;;
21206;SDS011;10761;48.532;8.026;2023-12-04T14:36:38;26.40;;;18.23;;